Terminal Aerodrome Forecast
Issued by NWS Sioux Falls, SD

Home | Current Version | Previous Version | Text Only | Print | Product List | Glossary Off
Versions: 1 2 3 4 5 6 7 8 9 10 11 12 13 14 15 16 17 18 19 20 21

812
FTUS43 KFSD 232336
TAFHON
TAF
KHON 232336Z 2400/2424 VRB03KT P6SM BKN150
     FM240900 VRB03KT P6SM OVC020
     FM241400 VRB03KT 3SM -SN OVC008
     FM241500 12006KT 3/4SM -SN OVC004
     FM242000 09006KT 1 1/2SM -SN OVC008
     FM242300 VRB03KT P6SM OVC020=

USA.gov is the U.S. government's official web portal to all federal, state and local government web resources and services.